createdAt,value
2017-11-07T00:00:42.784Z,89.05
2017-11-07T00:01:46.815Z,88.46
2017-11-07T00:02:51.221Z,88.56
2017-11-07T00:03:56.058Z,87.92
2017-11-07T00:04:59.991Z,88.48
2017-11-07T00:06:03.966Z,89.15
2017-11-07T00:07:08.015Z,89.42
2017-11-07T00:08:12.236Z,89.48
2017-11-07T00:09:16.592Z,89.12
2017-11-07T00:10:20.658Z,89.01
2017-11-07T00:11:24.556Z,89.45
2017-11-07T00:12:28.524Z,89.28
2017-11-07T00:13:32.408Z,89.18
2017-11-07T00:14:36.295Z,88.92
2017-11-07T00:15:40.462Z,88.74
2017-11-07T00:16:44.448Z,88.33
2017-11-07T00:17:48.349Z,88.31
2017-11-07T00:18:52.321Z,88.00
2017-11-07T00:19:56.439Z,88.41
2017-11-07T00:21:00.557Z,88.73
2017-11-07T00:22:04.964Z,88.80
2017-11-07T00:23:09.315Z,89.26
2017-11-07T00:24:13.324Z,89.09
2017-11-07T00:25:17.367Z,88.64
2017-11-07T00:26:21.409Z,88.42
2017-11-07T00:27:25.419Z,88.85
2017-11-07T00:28:29.773Z,88.83
2017-11-07T00:29:34.139Z,88.61
2017-11-07T00:30:38.069Z,88.46
2017-11-07T00:31:41.976Z,88.40
2017-11-07T00:32:47.102Z,88.07
2017-11-07T00:33:50.921Z,87.93
2017-11-07T00:34:55.638Z,87.74
2017-11-07T00:35:59.801Z,87.43
2017-11-07T00:37:03.674Z,87.56
2017-11-07T00:38:07.529Z,87.84
2017-11-07T00:39:11.374Z,87.58
2017-11-07T00:40:15.236Z,87.45
2017-11-07T00:41:19.390Z,87.70
2017-11-07T00:42:23.293Z,88.06
2017-11-07T00:43:27.166Z,87.84
2017-11-07T00:44:31.005Z,87.93
2017-11-07T00:45:34.847Z,88.26
2017-11-07T00:46:38.796Z,88.69
2017-11-07T00:47:42.946Z,88.55
2017-11-07T00:48:46.785Z,88.40
2017-11-07T00:49:50.644Z,88.26
2017-11-07T00:50:54.548Z,87.69
2017-11-07T00:51:58.367Z,87.14
2017-11-07T00:53:02.404Z,87.14
2017-11-07T00:54:06.651Z,87.31
2017-11-07T00:55:10.564Z,86.81
2017-11-07T00:56:14.502Z,86.66
2017-11-07T00:57:18.482Z,86.33
2017-11-07T00:58:22.500Z,86.06
2017-11-07T00:59:26.411Z,85.72
2017-11-07T01:00:30.559Z,85.89
2017-11-07T01:01:34.575Z,86.06
2017-11-07T01:02:38.569Z,86.32
2017-11-07T01:03:42.609Z,85.44
2017-11-07T01:04:46.519Z,85.56
2017-11-07T01:05:50.542Z,86.00
2017-11-07T01:06:54.812Z,86.09
2017-11-07T01:08:00.522Z,86.48
2017-11-07T01:09:06.271Z,86.73
2017-11-07T01:10:10.109Z,87.04
2017-11-07T01:11:13.906Z,87.65
2017-11-07T01:12:17.818Z,87.92
2017-11-07T01:13:21.810Z,88.72
2017-11-07T01:14:25.502Z,88.75
2017-11-07T01:15:29.236Z,88.93
2017-11-07T01:16:33.041Z,88.48
2017-11-07T01:17:37.073Z,88.42
2017-11-07T01:18:41.109Z,88.40
2017-11-07T01:19:45.369Z,88.21
2017-11-07T01:20:49.355Z,87.85
2017-11-07T01:21:53.339Z,87.80
2017-11-07T01:22:57.481Z,87.38
2017-11-07T01:24:01.394Z,87.57
2017-11-07T01:25:05.280Z,87.51
2017-11-07T01:26:09.429Z,86.43
2017-11-07T01:27:13.333Z,86.58
2017-11-07T01:28:17.185Z,86.78
2017-11-07T01:29:21.734Z,86.99
2017-11-07T01:30:25.571Z,87.52
2017-11-07T01:31:29.317Z,87.44
2017-11-07T01:32:34.035Z,87.35
2017-11-07T01:33:37.644Z,87.20
2017-11-07T01:34:42.301Z,87.00
2017-11-07T01:35:45.905Z,86.70
2017-11-07T01:36:49.427Z,86.60
2017-11-07T01:37:53.151Z,86.57
2017-11-07T01:38:57.151Z,86.55
2017-11-07T01:40:00.759Z,86.18
2017-11-07T01:41:05.006Z,86.27
2017-11-07T01:42:08.618Z,86.25
2017-11-07T01:43:12.389Z,86.27
2017-11-07T01:44:16.008Z,86.17
2017-11-07T01:45:20.069Z,85.91
2017-11-07T01:46:23.703Z,85.99
2017-11-07T01:47:27.288Z,86.79
2017-11-07T01:48:31.088Z,86.98
2017-11-07T01:49:34.931Z,86.98
2017-11-07T01:50:39.592Z,86.77
2017-11-07T01:51:43.574Z,86.67
2017-11-07T01:52:47.255Z,87.01
2017-11-07T01:53:51.003Z,87.45
2017-11-07T01:54:54.789Z,86.88
2017-11-07T01:55:58.776Z,86.46
2017-11-07T01:57:05.565Z,86.72
2017-11-07T01:58:09.856Z,86.97
2017-11-07T01:59:13.704Z,87.04
2017-11-07T02:00:17.644Z,86.75
2017-11-07T02:01:22.233Z,86.35
2017-11-07T02:02:29.364Z,86.64
2017-11-07T02:03:33.198Z,86.50
2017-11-07T02:04:37.484Z,86.32
2017-11-07T02:05:42.433Z,86.16
2017-11-07T02:06:46.711Z,86.10
2017-11-07T02:07:51.161Z,86.42
2017-11-07T02:08:54.990Z,86.36
2017-11-07T02:09:58.674Z,86.12
2017-11-07T02:11:02.346Z,86.45
2017-11-07T02:12:06.005Z,86.49
2017-11-07T02:13:09.660Z,86.74
2017-11-07T02:14:13.343Z,87.57
2017-11-07T02:15:17.093Z,87.65
2017-11-07T02:16:20.823Z,87.14
2017-11-07T02:17:24.848Z,86.86
2017-11-07T02:18:28.609Z,86.85
2017-11-07T02:19:32.621Z,86.79
2017-11-07T02:20:36.426Z,86.50
2017-11-07T02:21:40.169Z,86.16
2017-11-07T02:22:43.923Z,86.33
2017-11-07T02:23:48.108Z,85.91
2017-11-07T02:24:51.866Z,86.23
2017-11-07T02:25:56.004Z,86.44
2017-11-07T02:26:59.784Z,86.30
2017-11-07T02:28:03.486Z,85.98
2017-11-07T02:29:07.249Z,86.05
2017-11-07T02:30:11.473Z,86.09
2017-11-07T02:31:15.223Z,85.84
2017-11-07T02:32:18.958Z,86.13
2017-11-07T02:33:22.752Z,86.05
2017-11-07T02:34:26.610Z,86.16
2017-11-07T02:35:30.472Z,85.91
2017-11-07T02:36:34.625Z,85.31
2017-11-07T02:37:38.397Z,85.78
2017-11-07T02:38:42.038Z,85.86
2017-11-07T02:39:45.660Z,85.88
2017-11-07T02:40:49.416Z,86.21
2017-11-07T02:41:54.018Z,86.11
2017-11-07T02:42:58.093Z,86.73
2017-11-07T02:44:01.682Z,86.56
2017-11-07T02:45:05.227Z,86.46
2017-11-07T02:46:08.994Z,86.10
2017-11-07T02:47:12.995Z,85.99
2017-11-07T02:48:16.643Z,85.64
2017-11-07T02:49:20.779Z,85.95
2017-11-07T02:50:24.514Z,86.04
2017-11-07T02:51:28.276Z,86.03
2017-11-07T02:52:32.015Z,86.14
2017-11-07T02:53:35.767Z,86.75
2017-11-07T02:54:39.456Z,87.22
2017-11-07T02:55:43.714Z,87.28
2017-11-07T02:56:47.427Z,86.90
2017-11-07T02:57:51.226Z,87.01
2017-11-07T02:58:54.965Z,86.98
2017-11-07T02:59:58.682Z,86.62
2017-11-07T03:01:02.398Z,87.04
2017-11-07T03:02:06.817Z,87.15
2017-11-07T03:03:10.599Z,86.32
2017-11-07T03:04:14.395Z,86.56
2017-11-07T03:05:18.084Z,86.73
2017-11-07T03:06:21.808Z,86.60
2017-11-07T03:07:25.936Z,86.52
2017-11-07T03:08:30.103Z,86.75
2017-11-07T03:09:33.833Z,86.83
2017-11-07T03:10:37.564Z,86.93
2017-11-07T03:11:41.291Z,86.59
2017-11-07T03:12:45.019Z,86.61
2017-11-07T03:13:48.734Z,86.65
2017-11-07T03:14:52.868Z,86.69
2017-11-07T03:15:56.589Z,87.08
2017-11-07T03:17:00.390Z,86.75
2017-11-07T03:18:04.184Z,86.84
2017-11-07T03:19:07.947Z,86.87
2017-11-07T03:20:11.813Z,86.33
2017-11-07T03:21:15.814Z,85.85
2017-11-07T03:22:19.589Z,85.30
2017-11-07T03:23:23.366Z,85.66
2017-11-07T03:24:27.088Z,86.10
2017-11-07T03:25:30.849Z,86.62
2017-11-07T03:26:34.555Z,87.45
2017-11-07T03:27:38.593Z,88.48
2017-11-07T03:28:42.325Z,88.49
2017-11-07T03:29:46.042Z,89.05
2017-11-07T03:30:49.891Z,89.20
2017-11-07T03:31:53.624Z,89.59
2017-11-07T03:32:57.341Z,90.37
2017-11-07T03:34:01.380Z,90.81
2017-11-07T03:35:05.106Z,91.33
2017-11-07T03:36:08.671Z,91.31
2017-11-07T03:37:13.184Z,91.43
2017-11-07T03:38:16.765Z,91.11
2017-11-07T03:39:20.345Z,90.86
2017-11-07T03:40:24.516Z,91.44
2017-11-07T03:41:28.090Z,91.57
2017-11-07T03:42:31.684Z,91.53
2017-11-07T03:43:35.353Z,91.20
2017-11-07T03:44:39.123Z,91.19
2017-11-07T03:45:42.852Z,91.10
2017-11-07T03:46:46.600Z,91.31
2017-11-07T03:47:50.383Z,90.97
2017-11-07T03:48:54.099Z,91.06
2017-11-07T03:49:57.861Z,91.03
2017-11-07T03:51:01.548Z,91.03
2017-11-07T03:52:05.841Z,91.14
2017-11-07T03:53:09.550Z,91.02
2017-11-07T03:54:13.351Z,91.79
2017-11-07T03:55:17.098Z,91.58
2017-11-07T03:56:20.845Z,91.26
2017-11-07T03:57:24.572Z,91.26
2017-11-07T03:58:28.551Z,91.63
2017-11-07T03:59:32.281Z,91.83
2017-11-07T04:00:36.166Z,91.23
2017-11-07T04:01:39.940Z,90.97
2017-11-07T04:02:43.512Z,90.70
2017-11-07T04:03:47.242Z,90.07
2017-11-07T04:04:51.315Z,89.42
2017-11-07T04:05:55.643Z,89.83
2017-11-07T04:06:59.363Z,89.83
2017-11-07T04:08:03.164Z,88.99
2017-11-07T04:09:06.897Z,88.40
2017-11-07T04:10:10.636Z,88.00
2017-11-07T04:11:14.730Z,87.92
2017-11-07T04:12:18.364Z,87.50
2017-11-07T04:13:22.016Z,87.27
2017-11-07T04:14:25.652Z,86.82
2017-11-07T04:15:29.424Z,86.60
2017-11-07T04:16:33.119Z,86.50
2017-11-07T04:17:37.110Z,86.46
2017-11-07T04:18:40.847Z,86.55
2017-11-07T04:19:44.556Z,86.46
2017-11-07T04:20:48.310Z,86.67
2017-11-07T04:21:52.088Z,86.44
2017-11-07T04:22:55.848Z,86.25
2017-11-07T04:24:00.027Z,86.23
2017-11-07T04:25:03.779Z,86.19
2017-11-07T04:26:07.571Z,85.89
2017-11-07T04:27:11.485Z,85.97
2017-11-07T04:28:16.198Z,85.79
2017-11-07T04:29:19.925Z,85.19
2017-11-07T04:30:24.068Z,85.03
2017-11-07T04:31:27.773Z,84.85
2017-11-07T04:32:31.394Z,84.65
2017-11-07T04:33:34.932Z,84.53
2017-11-07T04:34:38.467Z,84.85
2017-11-07T04:35:42.010Z,85.12
2017-11-07T04:36:46.011Z,84.87
2017-11-07T04:37:49.661Z,85.30
2017-11-07T04:38:53.548Z,85.72
2017-11-07T04:39:57.144Z,86.50
2017-11-07T04:41:00.802Z,87.88
2017-11-07T04:42:04.494Z,88.45
2017-11-07T04:43:09.550Z,88.39
2017-11-07T04:44:13.165Z,88.70
2017-11-07T04:45:16.861Z,88.75
2017-11-07T04:46:20.455Z,89.02
2017-11-07T04:47:24.183Z,88.92
2017-11-07T04:48:27.835Z,88.27
2017-11-07T04:49:31.959Z,88.07
2017-11-07T04:50:35.580Z,88.24
2017-11-07T04:51:39.220Z,88.75
2017-11-07T04:52:42.839Z,88.95
2017-11-07T04:53:46.351Z,88.64
2017-11-07T04:54:49.799Z,88.44
2017-11-07T04:55:53.757Z,88.24
2017-11-07T04:56:57.270Z,88.07
2017-11-07T04:58:00.713Z,88.11
2017-11-07T04:59:04.170Z,87.75
2017-11-07T05:00:07.658Z,87.59
2017-11-07T05:01:11.121Z,87.63
2017-11-07T05:02:15.203Z,87.41
2017-11-07T05:03:19.436Z,87.21
2017-11-07T05:04:22.916Z,87.14
2017-11-07T05:05:26.563Z,86.91
2017-11-07T05:06:30.194Z,87.05
2017-11-07T05:07:33.831Z,86.90
2017-11-07T05:08:37.772Z,86.56
2017-11-07T05:09:41.504Z,86.10
2017-11-07T05:10:45.204Z,86.57
2017-11-07T05:11:48.811Z,86.31
2017-11-07T05:12:52.488Z,86.23
2017-11-07T05:13:56.168Z,86.31
2017-11-07T05:14:59.991Z,86.23
2017-11-07T05:16:03.464Z,86.40
2017-11-07T05:17:09.106Z,86.49
2017-11-07T05:18:12.596Z,86.82
2017-11-07T05:19:16.061Z,87.63
2017-11-07T05:20:19.668Z,87.93
2017-11-07T05:21:23.759Z,87.75
2017-11-07T05:22:27.454Z,87.47
2017-11-07T05:23:31.405Z,88.01
2017-11-07T05:24:34.930Z,88.09
2017-11-07T05:25:38.571Z,87.92
2017-11-07T05:26:42.188Z,87.53
2017-11-07T05:27:46.321Z,87.26
2017-11-07T05:28:50.000Z,87.16
2017-11-07T05:29:53.673Z,86.90
2017-11-07T05:30:57.408Z,86.66
2017-11-07T05:32:01.026Z,86.71
2017-11-07T05:33:04.642Z,86.87
2017-11-07T05:34:08.750Z,87.29
2017-11-07T05:35:12.228Z,88.20
2017-11-07T05:36:15.753Z,88.84
2017-11-07T05:37:19.637Z,88.75
2017-11-07T05:38:23.150Z,88.54
2017-11-07T05:39:26.602Z,88.25
2017-11-07T05:40:31.464Z,87.99
2017-11-07T05:41:34.948Z,87.97
2017-11-07T05:42:38.444Z,87.71
2017-11-07T05:43:41.924Z,87.26
2017-11-07T05:44:45.447Z,87.30
2017-11-07T05:45:49.121Z,87.69
2017-11-07T05:46:53.094Z,88.49
2017-11-07T05:47:56.736Z,88.48
2017-11-07T05:49:00.422Z,88.65
2017-11-07T05:50:04.068Z,88.96
2017-11-07T05:51:07.730Z,88.92
2017-11-07T05:52:11.549Z,88.89
2017-11-07T05:53:15.985Z,88.70
2017-11-07T05:54:19.610Z,88.55
2017-11-07T05:55:23.280Z,88.65
2017-11-07T05:56:26.941Z,88.71
2017-11-07T05:57:30.711Z,89.37
2017-11-07T05:58:34.340Z,89.68
2017-11-07T05:59:38.280Z,89.38
2017-11-07T06:00:41.907Z,89.49
2017-11-07T06:01:45.599Z,89.69
2017-11-07T06:02:49.246Z,89.21
2017-11-07T06:03:52.937Z,88.64
2017-11-07T06:04:56.591Z,88.28
2017-11-07T06:06:00.563Z,88.07
2017-11-07T06:07:04.229Z,87.91
2017-11-07T06:08:07.883Z,87.99
2017-11-07T06:09:11.571Z,88.40
2017-11-07T06:10:15.226Z,88.50
2017-11-07T06:11:18.857Z,88.41
2017-11-07T06:12:22.790Z,88.18
2017-11-07T06:13:26.776Z,88.28
2017-11-07T06:14:30.393Z,87.92
2017-11-07T06:15:34.050Z,88.13
2017-11-07T06:16:37.695Z,88.68
2017-11-07T06:17:41.883Z,88.55
2017-11-07T06:18:45.913Z,88.71
2017-11-07T06:19:49.499Z,88.93
2017-11-07T06:20:53.111Z,88.50
2017-11-07T06:21:56.810Z,88.38
2017-11-07T06:23:00.544Z,88.99
2017-11-07T06:24:04.383Z,89.22
2017-11-07T06:25:08.351Z,88.67
2017-11-07T06:26:12.172Z,88.10
2017-11-07T06:27:15.899Z,87.88
2017-11-07T06:28:19.574Z,88.38
2017-11-07T06:29:23.263Z,88.91
2017-11-07T06:30:28.101Z,88.65
2017-11-07T06:31:32.260Z,87.98
2017-11-07T06:32:35.924Z,88.13
2017-11-07T06:33:39.569Z,87.98
2017-11-07T06:34:43.411Z,88.51
2017-11-07T06:35:47.093Z,88.56
2017-11-07T06:36:50.844Z,88.91
2017-11-07T06:37:54.904Z,89.00
2017-11-07T06:38:58.576Z,89.75
2017-11-07T06:40:02.322Z,90.44
2017-11-07T06:41:06.031Z,90.82
2017-11-07T06:42:09.666Z,90.76
2017-11-07T06:43:13.351Z,91.08
2017-11-07T06:44:17.017Z,90.91
2017-11-07T06:45:20.693Z,90.84
2017-11-07T06:46:24.424Z,90.93
2017-11-07T06:47:28.105Z,90.91
2017-11-07T06:48:31.761Z,90.66
2017-11-07T06:49:35.885Z,90.65
2017-11-07T06:50:39.560Z,89.91
2017-11-07T06:51:43.220Z,89.63
2017-11-07T06:52:47.220Z,89.16
2017-11-07T06:53:50.862Z,89.50
2017-11-07T06:54:54.506Z,89.78
2017-11-07T06:55:58.193Z,89.65
2017-11-07T06:57:01.754Z,90.15
2017-11-07T06:58:05.376Z,90.08
2017-11-07T06:59:09.079Z,89.99
2017-11-07T07:00:12.649Z,90.01
2017-11-07T07:01:16.317Z,89.48
2017-11-07T07:02:20.272Z,88.88
2017-11-07T07:03:23.970Z,88.90
2017-11-07T07:04:27.669Z,89.79
2017-11-07T07:05:31.540Z,89.93
2017-11-07T07:06:35.123Z,90.03
2017-11-07T07:07:38.647Z,89.86
2017-11-07T07:08:42.498Z,89.58
2017-11-07T07:09:46.076Z,88.60
2017-11-07T07:10:49.595Z,88.43
2017-11-07T07:11:53.509Z,87.84
2017-11-07T07:12:57.069Z,87.64
2017-11-07T07:14:00.603Z,87.22
2017-11-07T07:15:04.665Z,86.49
2017-11-07T07:16:08.349Z,85.98
2017-11-07T07:17:12.016Z,85.96
2017-11-07T07:18:15.708Z,86.76
2017-11-07T07:19:19.382Z,86.92
2017-11-07T07:20:23.024Z,86.34
2017-11-07T07:21:27.095Z,86.20
2017-11-07T07:22:30.780Z,86.28
2017-11-07T07:23:34.509Z,86.27
2017-11-07T07:24:38.191Z,86.22
2017-11-07T07:25:42.015Z,85.41
2017-11-07T07:26:47.717Z,86.19
2017-11-07T07:27:52.434Z,85.13
2017-11-07T07:28:56.048Z,84.54
2017-11-07T07:29:59.790Z,85.06
2017-11-07T07:31:04.004Z,84.64
2017-11-07T07:32:07.751Z,83.32
2017-11-07T07:33:11.408Z,82.88
2017-11-07T07:34:15.468Z,82.18
2017-11-07T07:35:19.306Z,81.69
2017-11-07T07:36:22.858Z,82.50
2017-11-07T07:37:26.480Z,82.13
2017-11-07T07:38:30.080Z,81.68
2017-11-07T07:39:33.604Z,80.97
2017-11-07T07:40:37.781Z,81.48
2017-11-07T07:41:41.471Z,82.16
2017-11-07T07:42:45.256Z,81.66
2017-11-07T07:43:48.998Z,80.58
2017-11-07T07:44:52.768Z,80.50
2017-11-07T07:45:56.476Z,81.24
2017-11-07T07:47:00.584Z,82.26
2017-11-07T07:48:04.255Z,82.03
2017-11-07T07:49:07.979Z,81.60
2017-11-07T07:50:11.669Z,80.85
2017-11-07T07:51:15.366Z,80.32
2017-11-07T07:52:20.157Z,80.21
2017-11-07T07:53:24.338Z,79.12
2017-11-07T07:54:28.714Z,78.30
2017-11-07T07:55:32.344Z,77.87
2017-11-07T07:56:36.059Z,78.81
2017-11-07T07:57:39.755Z,78.38
2017-11-07T07:58:43.388Z,78.53
2017-11-07T08:00:10.039Z,77.99
2017-11-07T08:01:13.775Z,76.80
2017-11-07T08:02:17.544Z,75.93
2017-11-07T08:03:21.351Z,75.13
2017-11-07T08:04:36.043Z,76.01
2017-11-07T08:05:39.742Z,74.27
2017-11-07T08:06:43.506Z,73.31
2017-11-07T08:07:47.317Z,73.51
2017-11-07T08:08:51.117Z,73.90
2017-11-07T08:09:54.901Z,73.65
2017-11-07T08:10:59.997Z,74.49
2017-11-07T08:12:03.777Z,73.34
2017-11-07T08:13:07.518Z,72.66
2017-11-07T08:14:11.473Z,73.61
2017-11-07T08:15:15.326Z,74.55
2017-11-07T08:16:19.154Z,74.23
2017-11-07T08:17:23.262Z,73.50
2017-11-07T08:18:27.061Z,72.85
2017-11-07T08:19:31.658Z,71.38
2017-11-07T08:20:35.399Z,69.03
2017-11-07T08:21:39.252Z,69.52
2017-11-07T08:22:43.042Z,69.66
2017-11-07T08:23:47.274Z,70.38
2017-11-07T08:24:50.991Z,68.48
2017-11-07T08:25:54.657Z,66.85
2017-11-07T08:26:58.506Z,63.97
2017-11-07T08:28:02.288Z,64.24
2017-11-07T08:29:06.066Z,62.38
2017-11-07T08:30:10.202Z,62.63
2017-11-07T08:31:13.993Z,63.12
2017-11-07T08:32:17.832Z,63.89
2017-11-07T08:33:21.636Z,63.42
2017-11-07T08:34:25.439Z,62.90
2017-11-07T08:35:29.223Z,64.66
2017-11-07T08:36:33.341Z,66.12
2017-11-07T08:37:37.144Z,66.66
2017-11-07T08:38:41.003Z,63.10
2017-11-07T08:39:44.877Z,61.79
2017-11-07T08:40:48.688Z,60.93
2017-11-07T08:41:52.435Z,59.55
2017-11-07T08:42:56.454Z,59.71
2017-11-07T08:44:00.172Z,58.93
2017-11-07T08:45:03.853Z,58.89
2017-11-07T08:46:07.662Z,62.70
2017-11-07T08:47:11.599Z,64.96
2017-11-07T08:48:15.286Z,66.83
2017-11-07T08:49:19.469Z,68.60
2017-11-07T08:50:23.186Z,69.02
2017-11-07T08:51:27.005Z,69.48
2017-11-07T08:52:30.947Z,69.77
2017-11-07T08:53:34.658Z,70.50
2017-11-07T08:54:38.440Z,71.17
2017-11-07T08:55:42.635Z,72.38
2017-11-07T08:56:46.644Z,73.83
2017-11-07T08:57:50.440Z,73.73
2017-11-07T08:58:54.287Z,73.84
2017-11-07T08:59:58.040Z,74.71
2017-11-07T09:01:01.805Z,76.61
2017-11-07T09:02:06.025Z,77.37
2017-11-07T09:03:10.853Z,76.34
2017-11-07T09:04:15.843Z,75.67
2017-11-07T09:05:20.908Z,75.69
2017-11-07T09:06:24.832Z,75.64
2017-11-07T09:07:28.647Z,75.82
2017-11-07T09:08:32.472Z,75.75
2017-11-07T09:09:36.206Z,75.75
2017-11-07T09:10:39.924Z,76.78
2017-11-07T09:11:43.596Z,77.29
2017-11-07T09:12:47.263Z,77.55
2017-11-07T09:13:51.484Z,77.79
2017-11-07T09:14:55.456Z,77.84
2017-11-07T09:16:00.121Z,77.74
2017-11-07T09:17:04.235Z,77.54
2017-11-07T09:18:08.193Z,76.91
2017-11-07T09:19:13.243Z,76.06
2017-11-07T09:20:17.526Z,76.05
2017-11-07T09:21:21.218Z,75.65
2017-11-07T09:22:24.864Z,75.64
2017-11-07T09:23:30.871Z,75.46
2017-11-07T09:24:35.081Z,76.15
2017-11-07T09:25:39.318Z,77.02
2017-11-07T09:26:43.484Z,77.32
2017-11-07T09:27:47.149Z,77.95
2017-11-07T09:28:50.747Z,78.41
2017-11-07T09:29:54.389Z,78.62
2017-11-07T09:30:58.191Z,79.96
2017-11-07T09:32:02.038Z,80.14
2017-11-07T09:33:06.386Z,79.36
2017-11-07T09:34:10.549Z,78.91
2017-11-07T09:35:14.229Z,78.07
2017-11-07T09:36:17.949Z,78.30
2017-11-07T09:37:21.621Z,77.16
2017-11-07T09:38:25.357Z,76.34
2017-11-07T09:39:29.262Z,75.33
2017-11-07T09:40:33.139Z,74.67
2017-11-07T09:41:37.058Z,74.47
2017-11-07T09:42:40.915Z,74.67
2017-11-07T09:43:44.659Z,75.24
2017-11-07T09:44:48.297Z,75.14
2017-11-07T09:45:52.278Z,75.27
2017-11-07T09:46:56.167Z,75.32
2017-11-07T09:47:59.870Z,75.06
2017-11-07T09:49:03.754Z,75.28
2017-11-07T09:50:07.557Z,75.41
2017-11-07T09:51:11.386Z,76.34
2017-11-07T09:52:15.447Z,76.43
2017-11-07T09:53:19.257Z,77.08
2017-11-07T09:54:23.060Z,77.50
2017-11-07T09:55:26.914Z,78.50
2017-11-07T09:56:31.074Z,78.41
2017-11-07T09:57:34.859Z,77.64
2017-11-07T09:58:39.135Z,78.08
2017-11-07T09:59:42.929Z,77.44
2017-11-07T10:00:46.786Z,77.03
2017-11-07T10:01:50.532Z,76.49
2017-11-07T10:02:54.299Z,75.19
2017-11-07T10:03:58.443Z,74.31
2017-11-07T10:05:02.769Z,73.94
2017-11-07T10:06:08.990Z,74.17
2017-11-07T10:07:13.679Z,74.66
2017-11-07T10:08:17.517Z,75.38
2017-11-07T10:09:21.528Z,75.24
2017-11-07T10:10:25.306Z,75.36
2017-11-07T10:11:29.588Z,74.87
2017-11-07T10:12:33.364Z,74.28
2017-11-07T10:13:37.127Z,73.44
2017-11-07T10:14:40.883Z,73.11
2017-11-07T10:15:44.714Z,72.87
2017-11-07T10:16:48.426Z,72.36
2017-11-07T10:17:52.560Z,71.68
2017-11-07T10:18:56.173Z,72.81
2017-11-07T10:19:59.910Z,72.62
2017-11-07T10:21:03.544Z,72.94
2017-11-07T10:22:07.235Z,72.88
2017-11-07T10:23:10.992Z,72.71
2017-11-07T10:24:15.324Z,72.06
2017-11-07T10:25:19.103Z,72.03
2017-11-07T10:26:22.934Z,71.63
2017-11-07T10:27:26.983Z,72.47
2017-11-07T10:28:30.696Z,72.50
2017-11-07T10:29:34.567Z,73.57
2017-11-07T10:30:38.591Z,73.15
2017-11-07T10:31:42.539Z,73.67
2017-11-07T10:32:46.325Z,74.79
2017-11-07T10:33:50.139Z,75.38
2017-11-07T10:35:56.496Z,73.96
2017-11-07T10:37:00.686Z,74.32
2017-11-07T10:38:04.469Z,75.43
2017-11-07T10:39:08.239Z,75.35
2017-11-07T10:40:12.552Z,74.79
2017-11-07T10:41:16.352Z,75.00
2017-11-07T10:42:20.247Z,74.75
2017-11-07T10:43:24.557Z,74.60
2017-11-07T10:44:28.687Z,74.56
2017-11-07T10:45:34.674Z,74.31
2017-11-07T10:46:38.898Z,75.04
2017-11-07T10:47:43.275Z,74.49
2017-11-07T10:48:47.066Z,74.13
2017-11-07T10:49:51.335Z,73.34
2017-11-07T10:50:55.126Z,74.05
2017-11-07T10:51:58.856Z,74.16
2017-11-07T10:53:02.597Z,74.01
2017-11-07T10:54:06.435Z,73.85
2017-11-07T10:55:10.205Z,73.51
2017-11-07T10:56:14.094Z,73.17
2017-11-07T10:57:17.878Z,72.46
2017-11-07T10:58:21.603Z,71.62
2017-11-07T10:59:25.394Z,70.92
2017-11-07T11:00:29.203Z,70.48
2017-11-07T11:01:33.182Z,71.84
2017-11-07T11:02:37.505Z,72.38
2017-11-07T11:03:41.303Z,72.18
2017-11-07T11:04:46.254Z,72.21
2017-11-07T11:05:50.069Z,71.31
2017-11-07T11:06:53.824Z,70.27
2017-11-07T11:07:59.313Z,70.37
2017-11-07T11:09:03.199Z,69.51
2017-11-07T11:10:06.944Z,69.90
2017-11-07T11:11:10.833Z,70.02
2017-11-07T11:12:14.989Z,70.61
2017-11-07T11:13:18.783Z,69.99
2017-11-07T11:14:23.620Z,69.73
2017-11-07T11:15:27.506Z,68.55
2017-11-07T11:16:31.285Z,70.66
2017-11-07T11:17:35.076Z,69.99
2017-11-07T11:18:39.358Z,71.44
2017-11-07T11:19:43.138Z,71.05
2017-11-07T11:20:46.945Z,72.06
2017-11-07T11:21:50.843Z,71.33
2017-11-07T11:22:54.912Z,70.51
2017-11-07T11:23:59.765Z,69.48
2017-11-07T11:25:03.876Z,68.05
2017-11-07T11:26:07.618Z,66.82
2017-11-07T11:27:11.436Z,65.84
2017-11-07T11:28:15.131Z,65.13
2017-11-07T11:29:18.890Z,65.27
2017-11-07T11:30:22.483Z,65.36
2017-11-07T11:31:27.588Z,64.13
2017-11-07T11:32:31.475Z,61.47
2017-11-07T11:33:35.230Z,61.56
2017-11-07T11:34:38.979Z,60.66
2017-11-07T11:35:42.829Z,59.27
2017-11-07T11:36:46.959Z,57.85
2017-11-07T11:37:50.778Z,56.52
2017-11-07T11:38:54.574Z,54.55
2017-11-07T11:39:58.305Z,54.23
2017-11-07T11:41:02.609Z,52.15
2017-11-07T11:42:06.269Z,51.38
2017-11-07T11:43:12.046Z,52.13
2017-11-07T11:44:15.904Z,54.89
2017-11-07T11:45:19.609Z,58.88
2017-11-07T11:46:23.430Z,59.16
2017-11-07T11:47:27.127Z,60.00
2017-11-07T11:48:31.052Z,59.38
2017-11-07T11:49:35.018Z,61.15
2017-11-07T11:50:38.715Z,60.73
2017-11-07T11:51:42.470Z,60.61
2017-11-07T11:52:46.293Z,61.14
2017-11-07T11:53:50.003Z,60.86
2017-11-07T11:54:53.765Z,59.37
2017-11-07T11:55:57.901Z,59.76
2017-11-07T11:57:01.639Z,60.07
2017-11-07T11:58:05.202Z,60.10
2017-11-07T11:59:08.781Z,59.52
2017-11-07T12:00:12.387Z,60.44
2017-11-07T12:01:15.957Z,61.38
2017-11-07T12:02:19.999Z,62.23
2017-11-07T12:03:23.731Z,61.59
2017-11-07T12:04:27.407Z,60.84
2017-11-07T12:05:31.150Z,60.09
2017-11-07T12:06:34.776Z,59.75
2017-11-07T12:07:38.533Z,60.61
2017-11-07T12:08:42.636Z,61.53
2017-11-07T12:09:46.242Z,60.53
2017-11-07T12:10:49.933Z,59.63
2017-11-07T12:11:53.715Z,60.37
2017-11-07T12:12:57.490Z,60.42
2017-11-07T12:14:01.808Z,60.79
2017-11-07T12:15:06.032Z,60.59
2017-11-07T12:16:09.810Z,61.25
2017-11-07T12:17:14.489Z,61.79
2017-11-07T12:18:18.263Z,62.48
2017-11-07T12:19:22.099Z,60.68
2017-11-07T12:20:25.814Z,61.16
2017-11-07T12:21:30.168Z,60.92
2017-11-07T12:22:33.955Z,61.86
2017-11-07T12:23:37.860Z,61.39
2017-11-07T12:24:41.531Z,61.10
2017-11-07T12:25:45.292Z,61.14
2017-11-07T12:26:49.001Z,61.43
2017-11-07T12:27:53.832Z,63.31
2017-11-07T12:28:57.386Z,63.80
2017-11-07T12:30:00.885Z,63.24
2017-11-07T12:31:04.663Z,63.30
2017-11-07T12:32:08.336Z,62.97
2017-11-07T12:33:11.995Z,63.02
2017-11-07T12:34:16.146Z,62.98
2017-11-07T12:35:20.058Z,63.12
2017-11-07T12:36:23.950Z,62.58
2017-11-07T12:37:28.729Z,62.92
2017-11-07T12:38:32.610Z,64.05
2017-11-07T12:39:36.405Z,64.19
2017-11-07T12:40:40.608Z,64.36
2017-11-07T12:41:44.511Z,63.75
2017-11-07T12:42:48.518Z,63.40
2017-11-07T12:43:53.184Z,62.87
2017-11-07T12:44:57.530Z,63.42
2017-11-07T12:46:01.875Z,63.94
2017-11-07T12:47:07.128Z,65.21
2017-11-07T12:48:11.029Z,65.96
2017-11-07T12:49:15.263Z,63.42
2017-11-07T12:50:23.356Z,62.93
2017-11-07T12:52:30.640Z,58.83
2017-11-07T12:53:34.752Z,56.44
2017-11-07T12:54:38.603Z,57.01
2017-11-07T12:55:42.449Z,58.03
2017-11-07T12:56:46.201Z,56.36
2017-11-07T12:57:50.663Z,53.73
2017-11-07T12:58:54.470Z,52.85
2017-11-07T12:59:58.323Z,52.37
2017-11-07T13:01:02.151Z,50.53
2017-11-07T13:02:06.056Z,48.80
2017-11-07T13:03:09.852Z,48.59
2017-11-07T13:04:13.692Z,49.64
2017-11-07T13:05:17.517Z,48.63
2017-11-07T13:06:27.564Z,47.28
2017-11-07T13:07:31.445Z,48.10
2017-11-07T13:08:35.313Z,48.81
2017-11-07T13:09:38.905Z,48.74
2017-11-07T13:10:42.992Z,49.29
2017-11-07T13:11:46.614Z,50.23
2017-11-07T13:12:50.323Z,51.01
2017-11-07T13:13:54.109Z,52.98
2017-11-07T13:14:57.902Z,55.15
2017-11-07T13:16:01.735Z,56.04
2017-11-07T13:17:05.917Z,55.84
2017-11-07T13:18:10.074Z,57.27
2017-11-07T13:19:13.963Z,58.17
2017-11-07T13:20:18.527Z,59.02
2017-11-07T13:21:22.335Z,59.47
2017-11-07T13:22:26.191Z,60.21
2017-11-07T13:23:30.335Z,61.23
2017-11-07T13:24:34.454Z,59.43
2017-11-07T13:25:38.365Z,57.04
2017-11-07T13:26:42.214Z,56.03
2017-11-07T13:27:46.004Z,56.64
2017-11-07T13:28:49.827Z,56.33
2017-11-07T13:29:54.133Z,58.08
2017-11-07T13:30:57.930Z,60.68
2017-11-07T13:32:02.192Z,63.09
2017-11-07T13:33:06.030Z,61.39
2017-11-07T13:34:09.920Z,61.04
2017-11-07T13:35:13.775Z,60.13
2017-11-07T13:36:17.989Z,60.31
2017-11-07T13:37:21.826Z,58.89
2017-11-07T13:38:25.653Z,56.72
2017-11-07T13:39:29.423Z,56.25
2017-11-07T13:40:33.194Z,56.73
2017-11-07T13:41:36.996Z,59.06
2017-11-07T13:42:41.797Z,64.39
2017-11-07T13:43:46.670Z,65.96
2017-11-07T13:44:50.384Z,66.65
2017-11-07T13:45:54.306Z,65.78